createdAt,value
2022-07-29T00:01:19.731Z,101503.91
2022-07-29T00:03:48.758Z,101509.47
2022-07-29T00:06:18.091Z,101509.91
2022-07-29T00:08:50.691Z,101504.53
2022-07-29T00:11:18.817Z,101509.34
2022-07-29T00:13:50.905Z,101506.75
2022-07-29T00:16:20.187Z,101508.22
2022-07-29T00:18:48.389Z,101509.56
2022-07-29T00:21:16.786Z,101516.44
2022-07-29T00:23:45.390Z,101514.06
2022-07-29T00:26:32.322Z,101523.41
2022-07-29T00:29:32.543Z,101511.09
2022-07-29T00:31:51.754Z,101508.63
2022-07-29T00:34:39.486Z,101508.00
2022-07-29T00:37:08.159Z,101512.91
2022-07-29T00:39:36.840Z,101517.25
2022-07-29T00:42:08.475Z,101511.06
2022-07-29T00:44:41.000Z,101511.41
2022-07-29T00:47:11.364Z,101502.44
2022-07-29T00:49:43.871Z,101513.16
2022-07-29T00:52:13.142Z,101514.31
2022-07-29T00:54:45.569Z,101510.69
2022-07-29T00:57:14.467Z,101519.94
2022-07-29T00:59:42.866Z,101520.59
2022-07-29T01:02:11.733Z,101503.41
2022-07-29T01:04:40.769Z,101505.94
2022-07-29T01:07:09.172Z,101511.75
2022-07-29T01:09:45.761Z,101511.97
2022-07-29T01:12:19.686Z,101509.41
2022-07-29T01:14:50.137Z,101515.00
2022-07-29T01:17:35.257Z,101502.88
2022-07-29T01:20:21.401Z,101504.66
2022-07-29T01:22:55.595Z,101511.75
2022-07-29T01:25:45.570Z,101504.22
2022-07-29T01:28:35.796Z,101501.19
2022-07-29T01:31:06.437Z,101508.31
2022-07-29T01:33:52.201Z,101503.41
2022-07-29T01:36:27.182Z,101505.13
2022-07-29T01:39:21.261Z,101503.78
2022-07-29T01:41:58.288Z,101505.94
2022-07-29T01:44:35.805Z,101504.25
2022-07-29T01:47:14.049Z,101506.66
2022-07-29T01:49:49.230Z,101505.34
2022-07-29T01:52:37.961Z,101514.78
2022-07-29T01:55:16.455Z,101511.56
2022-07-29T01:57:49.047Z,101515.00
2022-07-29T02:00:18.209Z,101506.41
2022-07-29T02:02:49.737Z,101519.50
2022-07-29T02:05:22.999Z,101517.13
2022-07-29T02:07:54.256Z,101515.47
2022-07-29T02:10:26.034Z,101513.94
2022-07-29T02:12:57.867Z,101509.00
2022-07-29T02:15:28.599Z,101515.44
2022-07-29T02:18:04.979Z,101513.72
2022-07-29T02:20:33.727Z,101512.00
2022-07-29T02:23:05.054Z,101516.31
2022-07-29T02:25:36.915Z,101513.31
2022-07-29T02:28:08.001Z,101515.22
2022-07-29T02:30:43.740Z,101516.72
2022-07-29T02:33:15.998Z,101520.59
2022-07-29T02:35:47.670Z,101518.63
2022-07-29T02:38:36.577Z,101526.81
2022-07-29T02:41:13.012Z,101518.25
2022-07-29T02:43:44.672Z,101521.84
2022-07-29T02:46:28.386Z,101526.81
2022-07-29T02:49:02.400Z,101522.28
2022-07-29T02:51:45.363Z,101532.59
2022-07-29T02:54:47.949Z,101532.00
2022-07-29T02:57:23.475Z,101536.47
2022-07-29T02:59:58.426Z,101537.75
2022-07-29T03:02:30.061Z,101540.72
2022-07-29T03:05:02.236Z,101534.50
2022-07-29T03:07:33.268Z,101536.84
2022-07-29T03:10:02.543Z,101538.50
2022-07-29T03:12:32.654Z,101541.06
2022-07-29T03:15:03.493Z,101538.56
2022-07-29T03:17:33.305Z,101547.53
2022-07-29T03:20:02.694Z,101541.97
2022-07-29T03:22:32.226Z,101544.78
2022-07-29T03:25:10.138Z,101543.97
2022-07-29T03:27:38.851Z,101535.53
2022-07-29T03:30:09.395Z,101545.47
2022-07-29T03:32:38.621Z,101543.72
2022-07-29T03:35:09.034Z,101545.66
2022-07-29T03:37:37.847Z,101546.53
2022-07-29T03:40:10.162Z,101544.63
2022-07-29T03:42:43.525Z,101547.25
2022-07-29T03:45:15.505Z,101542.72
2022-07-29T03:47:49.993Z,101551.28
2022-07-29T03:50:22.284Z,101554.34
2022-07-29T03:52:51.398Z,101542.53
2022-07-29T03:55:19.778Z,101552.19
2022-07-29T03:57:48.977Z,101547.88
2022-07-29T04:00:18.055Z,101551.53
2022-07-29T04:02:50.078Z,101562.25
2022-07-29T04:05:19.704Z,101565.06
2022-07-29T04:07:49.344Z,101558.41
2022-07-29T04:10:31.541Z,101556.47
2022-07-29T04:13:01.200Z,101563.56
2022-07-29T04:15:31.132Z,101562.66
2022-07-29T04:18:00.706Z,101559.59
2022-07-29T04:20:29.577Z,101566.53
2022-07-29T04:22:57.763Z,101570.34
2022-07-29T04:25:26.153Z,101577.63
2022-07-29T04:28:03.685Z,101578.50
2022-07-29T04:30:33.193Z,101576.00
2022-07-29T04:33:07.125Z,101575.88
2022-07-29T04:35:38.654Z,101570.50
2022-07-29T04:38:15.706Z,101574.75
2022-07-29T04:40:45.176Z,101576.44
2022-07-29T04:43:14.249Z,101577.31
2022-07-29T04:45:44.433Z,101570.69
2022-07-29T04:48:13.121Z,101568.31
2022-07-29T04:50:42.383Z,101562.44
2022-07-29T04:53:11.094Z,101559.84
2022-07-29T04:55:39.361Z,101558.25
2022-07-29T04:58:08.745Z,101556.25
2022-07-29T05:00:37.532Z,101555.09
2022-07-29T05:03:05.905Z,101550.81
2022-07-29T05:05:34.144Z,101560.78
2022-07-29T05:08:02.941Z,101564.25
2022-07-29T05:10:31.075Z,101567.56
2022-07-29T05:12:59.363Z,101567.19
2022-07-29T05:15:28.077Z,101570.06
2022-07-29T05:17:56.277Z,101577.31
2022-07-29T05:20:29.460Z,101579.03
2022-07-29T05:22:59.687Z,101583.28
2022-07-29T05:25:43.521Z,101569.75
2022-07-29T05:28:13.544Z,101582.69
2022-07-29T05:30:42.213Z,101577.06
2022-07-29T05:33:35.124Z,101574.78
2022-07-29T05:36:00.754Z,101579.63
2022-07-29T05:38:30.267Z,101590.13
2022-07-29T05:41:00.147Z,101583.88
2022-07-29T05:43:30.036Z,101590.91
2022-07-29T05:45:59.091Z,101581.53
2022-07-29T05:48:27.501Z,101583.09
2022-07-29T05:50:56.346Z,101594.81
2022-07-29T05:53:25.947Z,101595.31
2022-07-29T05:55:54.026Z,101591.91
2022-07-29T05:58:23.246Z,101597.81
2022-07-29T06:00:52.094Z,101590.69
2022-07-29T06:03:20.158Z,101594.81
2022-07-29T06:05:49.093Z,101592.81
2022-07-29T06:08:18.467Z,101591.63
2022-07-29T06:10:47.158Z,101588.13
2022-07-29T06:13:17.283Z,101589.19
2022-07-29T06:15:45.817Z,101586.50
2022-07-29T06:18:14.691Z,101580.75
2022-07-29T06:20:43.803Z,101576.28
2022-07-29T06:23:12.222Z,101581.59
2022-07-29T06:25:42.098Z,101578.84
2022-07-29T06:28:10.564Z,101576.47
2022-07-29T06:30:39.557Z,101570.78
2022-07-29T06:33:07.712Z,101569.00
2022-07-29T06:35:38.313Z,101566.59
2022-07-29T06:38:30.001Z,101569.13
2022-07-29T06:41:09.062Z,101564.00
2022-07-29T06:43:50.464Z,101567.38
2022-07-29T06:46:21.484Z,101554.97
2022-07-29T06:48:50.523Z,101557.88
2022-07-29T06:51:22.651Z,101561.66
2022-07-29T06:54:01.744Z,101568.28
2022-07-29T06:56:38.992Z,101561.31
2022-07-29T06:59:12.715Z,101558.97
2022-07-29T07:01:44.809Z,101560.88
2022-07-29T07:04:15.326Z,101554.75
2022-07-29T07:06:44.156Z,101559.38
2022-07-29T07:09:12.489Z,101556.19
2022-07-29T07:11:41.778Z,101559.94
2022-07-29T07:14:09.892Z,101563.69
2022-07-29T07:16:38.797Z,101565.78
2022-07-29T07:19:07.198Z,101568.34
2022-07-29T07:21:35.270Z,101561.69
2022-07-29T07:24:04.362Z,101569.38
2022-07-29T07:26:32.749Z,101567.84
2022-07-29T07:29:01.687Z,101566.16
2022-07-29T07:31:30.225Z,101563.56
2022-07-29T07:33:58.757Z,101568.22
2022-07-29T07:36:27.072Z,101572.06
2022-07-29T07:38:55.104Z,101572.56
2022-07-29T07:41:25.122Z,101581.69
2022-07-29T07:43:53.291Z,101573.97
2022-07-29T07:46:22.534Z,101565.28
2022-07-29T07:48:51.233Z,101570.41
2022-07-29T07:51:56.584Z,101572.88
2022-07-29T07:58:36.772Z,101569.13
2022-07-29T08:01:05.429Z,101577.00
2022-07-29T08:03:34.792Z,101577.06
2022-07-29T08:06:05.304Z,101568.81
2022-07-29T08:08:33.775Z,101576.78
2022-07-29T08:11:08.559Z,101575.09
2022-07-29T08:13:39.213Z,101579.16
2022-07-29T08:16:16.460Z,101579.47
2022-07-29T08:18:46.454Z,101582.06
2022-07-29T08:21:16.224Z,101580.34
2022-07-29T08:23:52.998Z,101570.91
2022-07-29T08:26:26.755Z,101571.25
2022-07-29T08:28:54.911Z,101579.25
2022-07-29T08:31:23.005Z,101563.91
2022-07-29T08:33:54.516Z,101566.94
2022-07-29T08:36:22.938Z,101574.38
2022-07-29T08:38:51.005Z,101579.22
2022-07-29T08:41:25.001Z,101570.06
2022-07-29T08:43:53.816Z,101568.91
2022-07-29T08:46:23.848Z,101570.03
2022-07-29T08:48:52.277Z,101564.41
2022-07-29T08:51:22.687Z,101571.75
2022-07-29T08:53:52.236Z,101572.97
2022-07-29T08:56:21.072Z,101573.44
2022-07-29T08:58:52.109Z,101572.53
2022-07-29T09:01:36.289Z,101566.63
2022-07-29T09:04:13.298Z,101578.19
2022-07-29T09:06:46.748Z,101560.94
2022-07-29T09:09:16.205Z,101558.94
2022-07-29T09:11:44.722Z,101561.66
2022-07-29T09:14:16.939Z,101565.88
2022-07-29T09:16:57.802Z,101563.81
2022-07-29T09:19:31.634Z,101562.59
2022-07-29T09:22:03.357Z,101553.09
2022-07-29T09:24:35.756Z,101554.00
2022-07-29T09:27:12.867Z,101556.06
2022-07-29T09:29:43.676Z,101558.19
2022-07-29T09:32:14.976Z,101551.16
2022-07-29T09:34:43.601Z,101554.19
2022-07-29T09:37:12.928Z,101559.31
2022-07-29T09:39:47.836Z,101565.28
2022-07-29T09:42:29.785Z,101568.28
2022-07-29T09:44:58.630Z,101559.81
2022-07-29T09:47:41.387Z,101564.03
2022-07-29T09:50:10.195Z,101546.16
2022-07-29T09:52:53.175Z,101553.44
2022-07-29T09:55:22.240Z,101548.63
2022-07-29T09:57:50.606Z,101547.16
2022-07-29T10:00:21.316Z,101554.31
2022-07-29T10:02:50.430Z,101555.56
2022-07-29T10:05:24.299Z,101554.50
2022-07-29T10:07:58.134Z,101557.44
2022-07-29T10:10:28.875Z,101550.53
2022-07-29T10:13:07.968Z,101548.06
2022-07-29T10:15:44.632Z,101549.88
2022-07-29T10:18:18.709Z,101540.25
2022-07-29T10:20:49.640Z,101539.00
2022-07-29T10:23:18.367Z,101533.78
2022-07-29T10:25:47.560Z,101536.88
2022-07-29T10:28:16.698Z,101533.38
2022-07-29T10:30:47.395Z,101531.34
2022-07-29T10:33:38.134Z,101533.59
2022-07-29T10:36:14.317Z,101525.53
2022-07-29T10:39:06.111Z,101523.53
2022-07-29T10:41:57.884Z,101529.44
2022-07-29T10:44:28.722Z,101522.00
2022-07-29T10:46:58.156Z,101525.41
2022-07-29T10:49:30.701Z,101519.50
2022-07-29T10:52:07.173Z,101522.66
2022-07-29T10:54:46.647Z,101527.56
2022-07-29T10:57:18.540Z,101516.28
2022-07-29T11:00:16.824Z,101505.00
2022-07-29T11:02:50.380Z,101507.88
2022-07-29T11:05:22.539Z,101501.88
2022-07-29T11:08:28.114Z,101506.44
2022-07-29T11:11:20.243Z,101503.50
2022-07-29T11:13:56.944Z,101505.97
2022-07-29T11:16:26.992Z,101492.16
2022-07-29T11:19:14.844Z,101485.22
2022-07-29T11:21:53.977Z,101485.47
2022-07-29T11:24:35.373Z,101488.41
2022-07-29T11:30:07.195Z,101490.28
2022-07-29T11:32:40.878Z,101480.34
2022-07-29T11:35:37.411Z,101486.53
2022-07-29T11:38:35.998Z,101477.66
2022-07-29T11:41:19.248Z,101480.22
2022-07-29T11:43:56.330Z,101481.56
2022-07-29T11:46:43.359Z,101485.53
2022-07-29T11:49:15.357Z,101480.34
2022-07-29T11:51:48.127Z,101476.63
2022-07-29T11:54:27.332Z,101469.03
2022-07-29T11:56:56.874Z,101466.28
2022-07-29T12:07:53.792Z,101461.41
2022-07-29T12:10:30.412Z,101460.72
2022-07-29T12:12:59.242Z,101456.72
2022-07-29T12:15:39.185Z,101454.22
2022-07-29T12:18:18.597Z,101453.00
2022-07-29T12:20:47.654Z,101452.56
2022-07-29T12:23:18.890Z,101450.13
2022-07-29T12:25:49.833Z,101456.13
2022-07-29T12:28:26.853Z,101437.16
2022-07-29T12:30:55.783Z,101441.63
2022-07-29T12:33:31.244Z,101441.50
2022-07-29T12:36:07.561Z,101433.50
2022-07-29T12:38:41.626Z,101439.16
2022-07-29T12:41:10.150Z,101441.72
2022-07-29T12:43:38.164Z,101437.91
2022-07-29T12:46:16.470Z,101439.34
2022-07-29T12:48:45.217Z,101436.63
2022-07-29T12:51:15.664Z,101438.28
2022-07-29T12:54:11.905Z,101440.66
2022-07-29T12:56:43.167Z,101435.78
2022-07-29T12:59:19.916Z,101435.78
2022-07-29T13:01:50.774Z,101430.56
2022-07-29T13:04:33.524Z,101432.03
2022-07-29T13:07:05.083Z,101433.91
2022-07-29T13:09:44.266Z,101433.00
2022-07-29T13:12:15.402Z,101430.41
2022-07-29T13:14:46.693Z,101428.81
2022-07-29T13:17:18.412Z,101422.56
2022-07-29T13:19:52.638Z,101433.34
2022-07-29T13:22:22.923Z,101428.13
2022-07-29T13:24:53.687Z,101422.69
2022-07-29T13:27:25.989Z,101426.94
2022-07-29T13:29:57.820Z,101421.53
2022-07-29T13:32:29.081Z,101425.03
2022-07-29T13:34:59.472Z,101423.75
2022-07-29T13:37:30.939Z,101430.00
2022-07-29T13:40:00.506Z,101426.94
2022-07-29T13:42:30.563Z,101427.03
2022-07-29T13:45:00.617Z,101430.03
2022-07-29T13:47:32.186Z,101410.25
2022-07-29T13:50:03.328Z,101415.28
2022-07-29T13:52:34.691Z,101422.69
2022-07-29T13:55:04.726Z,101423.16
2022-07-29T13:57:33.569Z,101424.28
2022-07-29T14:00:01.800Z,101424.53
2022-07-29T14:02:36.946Z,101425.25
2022-07-29T14:05:26.442Z,101427.66
2022-07-29T14:07:55.093Z,101425.84
2022-07-29T14:10:23.465Z,101421.38
2022-07-29T14:12:51.648Z,101425.66
2022-07-29T14:15:20.546Z,101421.75
2022-07-29T14:17:48.706Z,101427.41
2022-07-29T14:20:17.189Z,101422.63
2022-07-29T14:22:46.015Z,101421.97
2022-07-29T14:25:15.422Z,101425.78
2022-07-29T14:27:45.425Z,101427.44
2022-07-29T14:30:14.484Z,101417.88
2022-07-29T14:32:44.102Z,101423.00
2022-07-29T14:35:14.079Z,101419.47
2022-07-29T14:37:47.784Z,101415.91
2022-07-29T14:40:18.646Z,101410.63
2022-07-29T14:42:49.204Z,101408.28
2022-07-29T14:45:17.868Z,101403.41
2022-07-29T14:47:46.016Z,101403.41
2022-07-29T14:50:14.990Z,101407.75
2022-07-29T14:53:20.506Z,101399.19
2022-07-29T14:55:50.725Z,101400.06
2022-07-29T14:58:19.784Z,101395.25
2022-07-29T15:00:49.496Z,101400.53
2022-07-29T15:03:24.095Z,101395.72
2022-07-29T15:05:52.826Z,101400.41
2022-07-29T15:08:22.884Z,101394.84
2022-07-29T15:10:51.884Z,101394.81
2022-07-29T15:13:21.307Z,101388.88
2022-07-29T15:15:51.401Z,101390.38
2022-07-29T15:18:25.671Z,101391.00
2022-07-29T15:20:55.115Z,101386.06
2022-07-29T15:23:23.563Z,101394.56
2022-07-29T15:25:52.124Z,101385.41
2022-07-29T15:28:21.871Z,101380.84
2022-07-29T15:30:50.290Z,101384.16
2022-07-29T15:33:19.849Z,101386.59
2022-07-29T15:35:49.061Z,101386.72
2022-07-29T15:38:18.090Z,101388.75
2022-07-29T15:40:47.801Z,101391.97
2022-07-29T15:43:17.128Z,101397.19
2022-07-29T15:46:04.336Z,101390.59
2022-07-29T15:48:33.415Z,101395.94
2022-07-29T15:51:02.000Z,101401.44
2022-07-29T15:53:30.641Z,101392.81
2022-07-29T15:56:02.875Z,101397.06
2022-07-29T15:58:34.397Z,101393.63
2022-07-29T16:01:04.331Z,101403.00
2022-07-29T16:03:34.513Z,101407.19
2022-07-29T16:06:05.488Z,101410.47
2022-07-29T16:08:34.937Z,101409.63
2022-07-29T16:11:04.864Z,101407.66
2022-07-29T16:13:35.143Z,101409.72
2022-07-29T16:16:06.408Z,101412.56
2022-07-29T16:18:35.800Z,101410.69
2022-07-29T16:21:04.983Z,101411.31
2022-07-29T16:23:33.682Z,101407.66
2022-07-29T16:26:03.196Z,101411.13
2022-07-29T16:28:32.779Z,101411.69
2022-07-29T16:31:02.493Z,101415.66
2022-07-29T16:33:55.551Z,101417.03
2022-07-29T16:36:27.069Z,101421.03
2022-07-29T16:38:59.130Z,101419.31
2022-07-29T16:41:31.723Z,101415.00
2022-07-29T16:44:02.547Z,101414.34
2022-07-29T16:46:31.336Z,101414.03
2022-07-29T16:49:00.082Z,101415.41
2022-07-29T16:51:30.903Z,101425.84
2022-07-29T16:53:59.741Z,101419.19
2022-07-29T16:56:28.568Z,101413.53
2022-07-29T16:58:59.576Z,101429.84
2022-07-29T17:01:28.775Z,101435.13
2022-07-29T17:04:07.905Z,101431.94
2022-07-29T17:06:41.652Z,101436.19
2022-07-29T17:09:16.144Z,101436.06
2022-07-29T17:11:53.135Z,101430.50
2022-07-29T17:14:29.130Z,101434.53
2022-07-29T17:17:02.828Z,101444.44
2022-07-29T17:19:35.760Z,101442.56
2022-07-29T17:22:15.459Z,101447.25
2022-07-29T17:24:49.187Z,101447.81
2022-07-29T17:27:18.556Z,101455.31
2022-07-29T17:29:49.408Z,101458.38
2022-07-29T17:32:18.101Z,101461.41
2022-07-29T17:34:47.031Z,101461.41
2022-07-29T17:37:15.436Z,101460.50
2022-07-29T17:39:43.869Z,101464.66
2022-07-29T17:42:14.752Z,101456.53
2022-07-29T17:44:42.933Z,101465.66
2022-07-29T17:47:15.837Z,101466.97
2022-07-29T17:49:46.012Z,101468.09
2022-07-29T17:52:14.451Z,101466.28
2022-07-29T17:54:42.702Z,101463.72
2022-07-29T17:57:11.706Z,101469.69
2022-07-29T17:59:39.888Z,101465.78
2022-07-29T18:02:10.306Z,101478.25
2022-07-29T18:04:39.284Z,101478.94
2022-07-29T18:07:07.582Z,101482.22
2022-07-29T18:09:39.259Z,101483.91
2022-07-29T18:12:07.980Z,101488.84
2022-07-29T18:14:36.109Z,101485.69
2022-07-29T18:17:04.747Z,101490.72
2022-07-29T18:19:33.960Z,101487.06
2022-07-29T18:22:04.967Z,101484.59
2022-07-29T18:24:35.329Z,101490.84
2022-07-29T18:27:03.845Z,101492.97
2022-07-29T18:29:31.846Z,101493.81
2022-07-29T18:32:00.212Z,101494.25
2022-07-29T18:34:29.689Z,101492.25
2022-07-29T18:36:58.229Z,101490.91
2022-07-29T18:39:27.078Z,101491.91
2022-07-29T18:41:55.472Z,101495.47
2022-07-29T18:44:23.929Z,101498.28
2022-07-29T18:46:53.631Z,101505.16
2022-07-29T18:49:23.308Z,101509.06
2022-07-29T18:51:52.681Z,101514.53
2022-07-29T18:54:21.374Z,101515.41
2022-07-29T18:56:49.936Z,101507.56
2022-07-29T18:59:20.615Z,101513.09
2022-07-29T19:01:49.837Z,101508.94
2022-07-29T19:04:18.277Z,101520.91
2022-07-29T19:06:46.822Z,101514.66
2022-07-29T19:09:16.554Z,101508.94
2022-07-29T19:11:44.902Z,101512.13
2022-07-29T19:14:13.251Z,101518.19
2022-07-29T19:16:41.947Z,101512.72
2022-07-29T19:19:10.844Z,101519.81
2022-07-29T19:21:38.903Z,101508.06
2022-07-29T19:24:13.610Z,101515.53
2022-07-29T19:26:47.123Z,101517.47
2022-07-29T19:29:16.465Z,101511.00
2022-07-29T19:31:44.818Z,101513.59
2022-07-29T19:34:13.359Z,101509.44
2022-07-29T19:36:42.353Z,101516.25
2022-07-29T19:39:10.970Z,101511.00
2022-07-29T19:41:40.114Z,101509.16
2022-07-29T19:44:08.767Z,101511.19
2022-07-29T19:46:36.909Z,101520.97
2022-07-29T19:49:06.892Z,101516.47
2022-07-29T19:51:35.881Z,101519.28
2022-07-29T19:54:04.667Z,101512.28
2022-07-29T19:56:33.406Z,101523.13
2022-07-29T19:59:03.093Z,101512.28
2022-07-29T20:01:36.712Z,101517.75
2022-07-29T20:04:05.526Z,101516.78
2022-07-29T20:06:35.157Z,101513.09
2022-07-29T20:09:04.612Z,101512.66
2022-07-29T20:11:37.181Z,101504.31
2022-07-29T20:14:05.909Z,101520.53
2022-07-29T20:16:34.474Z,101503.19
2022-07-29T20:19:02.959Z,101509.06
2022-07-29T20:21:31.823Z,101503.41
2022-07-29T20:24:02.757Z,101508.44
2022-07-29T20:26:34.174Z,101506.13
2022-07-29T20:29:05.629Z,101512.22
2022-07-29T20:31:34.346Z,101503.13
2022-07-29T20:34:02.984Z,101506.75
2022-07-29T20:36:31.819Z,101520.75
2022-07-29T20:39:01.404Z,101522.59
2022-07-29T20:41:29.562Z,101513.81
2022-07-29T20:43:58.384Z,101521.41
2022-07-29T20:46:26.701Z,101523.94
2022-07-29T20:48:55.237Z,101520.75
2022-07-29T20:51:24.036Z,101531.97
2022-07-29T20:53:52.236Z,101526.81
2022-07-29T20:56:20.454Z,101531.38
2022-07-29T20:58:49.886Z,101529.19
2022-07-29T21:01:17.974Z,101535.63
2022-07-29T21:03:46.211Z,101536.56
2022-07-29T21:06:16.317Z,101530.97
2022-07-29T21:08:44.667Z,101538.50
2022-07-29T21:11:13.057Z,101540.69
2022-07-29T21:13:42.377Z,101544.91
2022-07-29T21:16:14.747Z,101540.69
2022-07-29T21:18:46.823Z,101542.50
2022-07-29T21:21:16.793Z,101532.44
2022-07-29T21:23:46.599Z,101532.69
2022-07-29T21:26:16.266Z,101546.03
2022-07-29T21:28:44.478Z,101544.53
2022-07-29T21:31:15.034Z,101544.00
2022-07-29T21:33:46.142Z,101542.13
2022-07-29T21:36:46.456Z,101549.72
2022-07-29T21:39:07.402Z,101543.31
2022-07-29T21:41:36.426Z,101537.13
2022-07-29T21:44:05.437Z,101539.44
2022-07-29T21:46:33.483Z,101542.31
2022-07-29T21:49:02.450Z,101539.69
2022-07-29T21:51:30.367Z,101540.44
2022-07-29T21:53:58.673Z,101541.91
2022-07-29T21:56:28.005Z,101543.69
2022-07-29T21:58:56.624Z,101540.66
2022-07-29T22:01:25.452Z,101541.13
2022-07-29T22:03:54.231Z,101546.22
2022-07-29T22:06:22.892Z,101541.13
2022-07-29T22:08:50.769Z,101544.03
2022-07-29T22:11:20.272Z,101544.25
2022-07-29T22:13:48.424Z,101549.09
2022-07-29T22:16:16.550Z,101540.66
2022-07-29T22:18:47.263Z,101539.50
2022-07-29T22:21:16.182Z,101542.19
2022-07-29T22:23:44.122Z,101543.72
2022-07-29T22:26:12.677Z,101541.84
2022-07-29T22:28:41.164Z,101542.47
2022-07-29T22:31:10.426Z,101551.56
2022-07-29T22:33:38.906Z,101546.97
2022-07-29T22:36:07.731Z,101545.47
2022-07-29T22:38:35.824Z,101540.31
2022-07-29T22:41:04.257Z,101541.00
2022-07-29T22:43:32.405Z,101546.84
2022-07-29T22:46:00.758Z,101543.81
2022-07-29T22:48:29.504Z,101540.88
2022-07-29T22:50:57.579Z,101547.28
2022-07-29T22:53:25.844Z,101543.03
2022-07-29T22:55:55.447Z,101542.19
2022-07-29T22:58:23.683Z,101541.63
2022-07-29T23:00:54.280Z,101545.97
2022-07-29T23:03:23.668Z,101547.69
2022-07-29T23:05:52.209Z,101547.94
2022-07-29T23:08:21.251Z,101550.94
2022-07-29T23:10:50.086Z,101547.47
2022-07-29T23:13:18.288Z,101548.78
2022-07-29T23:15:46.709Z,101550.91
2022-07-29T23:18:15.532Z,101559.34
2022-07-29T23:20:45.914Z,101559.75
2022-07-29T23:23:15.000Z,101557.63
2022-07-29T23:25:43.522Z,101560.03
2022-07-29T23:28:13.299Z,101569.06
2022-07-29T23:30:42.847Z,101558.75
2022-07-29T23:33:11.537Z,101565.19
2022-07-29T23:35:39.832Z,101562.88
2022-07-29T23:38:08.258Z,101572.19
2022-07-29T23:40:36.925Z,101562.66
2022-07-29T23:43:08.459Z,101563.97
2022-07-29T23:45:42.781Z,101564.84
2022-07-29T23:48:14.927Z,101556.88
2022-07-29T23:50:43.733Z,101554.94
2022-07-29T23:53:12.538Z,101558.59
2022-07-29T23:55:40.729Z,101554.34
2022-07-29T23:58:10.029Z,101560.16
